Time;durP1;ratioP1;P1;durP2;ratioP2;P2;SDS_P1;SDS_P2;PMS_P1;PMS_P2;Temp;Humidity;BMP_temperature;BMP_pressure;BME280_temperature;BME280_humidity;BME280_pressure;Samples;Min_cycle;Max_cycle;Signal;HPM_P1;HPM_P2
2021/12/21 00:00:29;;;;;;;13.53;7.30;;;0.00;99.90;;;;;;5095372;27;20211;-70
2021/12/21 00:03:18;;;;;;;38.77;20.47;;;0.00;99.90;;;;;;5093296;28;20725;-71
2021/12/21 00:06:07;;;;;;;18.67;8.00;;;0.00;99.90;;;;;;5097091;27;20215;-70
2021/12/21 00:08:59;;;;;;;20.37;8.07;;;0.00;99.90;;;;;;5094672;28;20245;-70
2021/12/21 00:11:49;;;;;;;14.90;7.23;;;0.00;99.90;;;;;;5098504;27;20645;-70
2021/12/21 00:14:49;;;;;;;15.40;6.97;;;0.10;99.90;;;;;;5097714;27;20219;-70
2021/12/21 00:17:50;;;;;;;14.57;6.80;;;0.00;99.90;;;;;;5094183;27;20257;-69
2021/12/21 00:20:50;;;;;;;15.23;6.50;;;0.10;99.90;;;;;;5094299;27;20222;-68
2021/12/21 00:23:46;;;;;;;11.83;6.20;;;0.10;99.90;;;;;;5074782;28;20308;-70
2021/12/21 00:26:34;;;;;;;15.93;6.80;;;0.10;99.90;;;;;;5084568;28;20234;-70
2021/12/21 00:29:23;;;;;;;17.70;7.43;;;0.10;99.90;;;;;;5097705;28;20218;-69
2021/12/21 00:32:14;;;;;;;17.00;7.07;;;0.10;99.90;;;;;;5077299;27;20233;-69
2021/12/21 00:35:03;;;;;;;15.50;7.30;;;0.20;99.90;;;;;;5093410;28;20702;-69
2021/12/21 00:37:52;;;;;;;14.30;7.30;;;0.20;99.90;;;;;;5091833;28;20211;-69
2021/12/21 00:40:40;;;;;;;13.57;7.67;;;0.30;99.90;;;;;;5096366;27;20226;-69
2021/12/21 00:43:29;;;;;;;16.03;8.50;;;0.30;99.90;;;;;;5078535;28;20226;-70
2021/12/21 00:46:18;;;;;;;17.33;8.47;;;0.20;99.90;;;;;;5097316;27;20255;-69
2021/12/21 00:52:11;;;;;;;14.67;7.70;;;0.20;99.90;;;;;;5076323;28;20358;-69
2021/12/21 00:55:00;;;;;;;19.47;8.67;;;0.20;99.90;;;;;;5079585;28;20726;-69
2021/12/21 00:57:49;;;;;;;16.20;8.50;;;0.20;99.90;;;;;;5078494;27;20230;-69
2021/12/21 01:00:37;;;;;;;15.17;7.97;;;0.20;99.90;;;;;;5093595;27;20777;-69
2021/12/21 01:03:26;;;;;;;17.80;8.77;;;0.20;99.90;;;;;;5090741;27;20227;-70
2021/12/21 01:06:24;;;;;;;15.47;8.33;;;0.30;99.90;;;;;;5097943;27;20222;-69
2021/12/21 01:09:30;;;;;;;14.73;8.00;;;0.10;99.90;;;;;;5080590;28;20230;-69
2021/12/21 01:12:33;;;;;;;20.47;9.60;;;0.10;99.90;;;;;;5096197;27;20224;-70
2021/12/21 01:15:43;;;;;;;18.43;8.90;;;0.00;99.90;;;;;;5096329;28;20654;-68
2021/12/21 01:18:37;;;;;;;17.73;9.10;;;0.00;99.90;;;;;;5083378;27;20230;-67
2021/12/21 01:21:31;;;;;;;16.73;9.33;;;0.10;99.90;;;;;;5077985;28;20224;-69
2021/12/21 01:27:33;;;;;;;16.20;7.90;;;0.10;99.90;;;;;;5069674;28;20288;-69
2021/12/21 01:30:35;;;;;;;18.37;8.30;;;0.20;99.90;;;;;;5076223;28;20208;-67
2021/12/21 01:33:39;;;;;;;16.53;8.13;;;0.30;99.90;;;;;;5072064;28;20218;-69
2021/12/21 01:36:36;;;;;;;14.80;8.33;;;0.20;99.90;;;;;;5089263;28;20205;-68
2021/12/21 01:51:52;;;;;;;16.37;7.70;;;0.30;99.90;;;;;;5073498;28;20226;-70
2021/12/21 01:54:41;;;;;;;15.77;8.63;;;0.20;99.90;;;;;;5074040;28;20222;-70
2021/12/21 01:57:30;;;;;;;15.33;8.13;;;0.30;99.90;;;;;;5078522;28;20222;-69
2021/12/21 02:00:19;;;;;;;15.43;8.87;;;0.30;99.90;;;;;;5077203;28;20790;-70
2021/12/21 02:03:09;;;;;;;14.97;8.30;;;0.10;99.90;;;;;;5078809;28;20219;-71
2021/12/21 02:05:58;;;;;;;16.87;8.80;;;0.00;99.90;;;;;;5075071;28;20235;-71
2021/12/21 02:08:49;;;;;;;15.53;8.80;;;0.00;99.90;;;;;;5074600;28;20223;-70
2021/12/21 02:11:37;;;;;;;14.07;8.10;;;0.10;99.90;;;;;;5081994;28;20228;-70
2021/12/21 02:14:26;;;;;;;12.87;7.33;;;0.10;99.90;;;;;;5075842;28;20230;-70
2021/12/21 02:17:39;;;;;;;13.13;6.13;;;0.10;99.90;;;;;;5089541;27;20825;-71
2021/12/21 02:20:42;;;;;;;10.87;6.10;;;0.00;99.90;;;;;;5078490;28;20229;-70
2021/12/21 02:23:34;;;;;;;11.40;5.80;;;-0.20;99.90;;;;;;5078163;28;20298;-71
2021/12/21 02:26:44;;;;;;;10.50;4.87;;;-0.20;99.90;;;;;;5096915;28;20229;-71
2021/12/21 02:29:34;;;;;;;8.97;5.43;;;-0.30;99.90;;;;;;5078413;28;20226;-70
2021/12/21 02:32:24;;;;;;;10.00;5.27;;;-0.40;99.90;;;;;;5079574;28;20236;-70
2021/12/21 02:35:12;;;;;;;11.70;5.50;;;-0.40;99.90;;;;;;5080584;28;20695;-71
2021/12/21 02:38:02;;;;;;;13.13;6.20;;;-0.40;99.90;;;;;;5076688;28;20227;-74
2021/12/21 02:40:51;;;;;;;10.63;5.60;;;-0.30;99.90;;;;;;5081941;28;20589;-71
2021/12/21 02:43:40;;;;;;;8.47;4.83;;;-0.20;99.90;;;;;;5076848;28;20226;-69
2021/12/21 02:46:28;;;;;;;8.97;5.10;;;-0.40;99.90;;;;;;5083931;28;21057;-71
2021/12/21 02:49:18;;;;;;;7.20;3.87;;;-0.30;99.90;;;;;;5095113;28;20221;-70
2021/12/21 02:52:07;;;;;;;8.40;3.90;;;-0.30;99.90;;;;;;5092698;28;20622;-69
2021/12/21 02:54:58;;;;;;;8.13;4.13;;;-0.40;99.90;;;;;;5094082;28;20224;-71
2021/12/21 02:57:47;;;;;;;8.03;3.90;;;-0.30;99.90;;;;;;5080049;28;20210;-69
2021/12/21 03:00:35;;;;;;;6.57;3.57;;;-0.30;99.90;;;;;;5096351;28;20723;-69
2021/12/21 03:03:26;;;;;;;7.97;3.47;;;-0.30;99.90;;;;;;5094999;28;20234;-70
2021/12/21 03:06:43;;;;;;;6.13;3.20;;;-0.30;99.90;;;;;;5096659;28;20229;-69
2021/12/21 03:09:55;;;;;;;8.70;3.67;;;-0.20;99.90;;;;;;5091140;28;20219;-68
2021/12/21 03:15:52;;;;;;;6.10;3.57;;;-0.20;99.90;;;;;;5095191;28;20227;-70
2021/12/21 03:18:41;;;;;;;7.13;3.63;;;-0.20;99.90;;;;;;5081242;28;20228;-70
2021/12/21 03:21:30;;;;;;;6.23;3.67;;;-0.20;99.90;;;;;;5079309;28;20986;-69
2021/12/21 03:24:18;;;;;;;6.87;3.40;;;-0.20;99.90;;;;;;5089472;28;20239;-68
2021/12/21 03:27:07;;;;;;;5.73;3.77;;;-0.30;99.90;;;;;;5080702;28;20901;-70
2021/12/21 03:29:57;;;;;;;9.10;4.07;;;-0.30;99.90;;;;;;5092644;28;20747;-70
2021/12/21 03:32:45;;;;;;;8.40;4.00;;;-0.30;99.90;;;;;;5080294;28;20775;-70
2021/12/21 03:35:34;;;;;;;8.03;4.10;;;-0.30;99.90;;;;;;5095528;28;20216;-69
2021/12/21 03:38:23;;;;;;;7.07;4.10;;;-0.40;99.90;;;;;;5079426;28;20494;-71
2021/12/21 03:41:15;;;;;;;6.67;3.80;;;-0.40;99.90;;;;;;5094799;28;20221;-69
2021/12/21 03:44:04;;;;;;;7.33;3.47;;;-0.30;99.90;;;;;;5080545;28;20312;-70
2021/12/21 03:46:56;;;;;;;9.80;3.83;;;-0.40;99.90;;;;;;5080025;27;20226;-70
2021/12/21 03:50:00;;;;;;;8.17;3.50;;;-0.40;99.90;;;;;;5097828;27;20217;-71
2021/12/21 03:52:52;;;;;;;5.03;3.40;;;-0.50;99.90;;;;;;5098035;27;20226;-70
2021/12/21 03:55:41;;;;;;;6.67;3.70;;;-0.60;99.90;;;;;;5100381;27;20698;-70
2021/12/21 03:58:30;;;;;;;5.67;3.10;;;-0.70;99.90;;;;;;5092209;27;20232;-70
2021/12/21 04:01:18;;;;;;;6.03;3.40;;;-0.70;99.90;;;;;;5085042;28;20743;-71
2021/12/21 04:04:09;;;;;;;7.60;3.40;;;-0.80;99.90;;;;;;5084803;27;20215;-69
2021/12/21 04:06:58;;;;;;;6.00;3.07;;;-0.90;99.90;;;;;;5096200;27;20736;-71
2021/12/21 04:09:48;;;;;;;7.17;3.90;;;-1.00;99.90;;;;;;5097938;27;20586;-72
2021/12/21 04:12:38;;;;;;;6.63;2.70;;;-1.30;99.90;;;;;;5082529;28;20207;-67
2021/12/21 04:15:28;;;;;;;4.13;2.67;;;-1.50;99.90;;;;;;5082938;28;20651;-68
2021/12/21 04:18:19;;;;;;;5.60;3.43;;;-1.60;99.90;;;;;;5097585;27;20227;-70
2021/12/21 04:21:12;;;;;;;9.03;2.93;;;-1.80;99.90;;;;;;5097528;28;20214;-71
2021/12/21 04:24:00;;;;;;;5.93;3.17;;;-2.00;99.90;;;;;;5095525;28;20210;-69
2021/12/21 04:26:49;;;;;;;8.70;3.50;;;-2.10;99.90;;;;;;5097176;27;20674;-70
2021/12/21 04:29:38;;;;;;;7.40;3.10;;;-2.00;99.90;;;;;;5096153;28;20910;-69
2021/12/21 04:32:29;;;;;;;6.43;3.60;;;-2.00;99.90;;;;;;5084377;28;20207;-70
2021/12/21 04:35:20;;;;;;;6.60;3.57;;;-1.90;99.90;;;;;;5084174;28;20832;-69
2021/12/21 04:38:20;;;;;;;6.80;3.30;;;-2.00;99.90;;;;;;5095218;27;20226;-70
2021/12/21 04:41:15;;;;;;;8.90;3.30;;;-2.00;99.90;;;;;;5085832;27;20215;-70
2021/12/21 04:44:04;;;;;;;6.53;3.03;;;-2.00;99.90;;;;;;5097234;28;20222;-70
2021/12/21 04:46:53;;;;;;;6.77;3.63;;;-2.20;99.90;;;;;;5093692;27;20233;-70
2021/12/21 04:49:42;;;;;;;6.40;2.80;;;-2.20;99.90;;;;;;5095823;28;20603;-71
2021/12/21 04:52:31;;;;;;;7.40;3.00;;;-2.20;99.90;;;;;;5096082;27;20223;-70
2021/12/21 04:55:22;;;;;;;4.17;2.30;;;-2.30;99.90;;;;;;5083179;27;20225;-70
2021/12/21 04:58:11;;;;;;;6.00;2.10;;;-2.30;99.90;;;;;;5092254;27;20233;-70
2021/12/21 05:01:00;;;;;;;3.50;2.00;;;-2.30;99.90;;;;;;5092047;27;20225;-70
2021/12/21 05:03:49;;;;;;;5.33;2.10;;;-2.60;99.90;;;;;;5096067;27;20605;-71
2021/12/21 05:06:38;;;;;;;5.27;2.50;;;-2.60;99.90;;;;;;5096330;27;20217;-70
2021/12/21 05:09:29;;;;;;;3.33;1.80;;;-2.50;99.90;;;;;;5076852;28;20224;-70
2021/12/21 05:12:19;;;;;;;3.03;1.77;;;-2.50;99.90;;;;;;5093571;27;20229;-70
2021/12/21 05:15:09;;;;;;;3.77;1.80;;;-2.40;99.90;;;;;;5099168;27;20215;-71
2021/12/21 05:17:58;;;;;;;4.50;1.80;;;-2.60;99.90;;;;;;5093862;27;20230;-69
2021/12/21 05:20:46;;;;;;;2.87;1.70;;;-2.60;99.90;;;;;;5081144;28;20224;-69
2021/12/21 05:23:35;;;;;;;2.90;1.77;;;-2.60;99.90;;;;;;5084363;27;20216;-70
2021/12/21 05:26:24;;;;;;;6.17;2.17;;;-2.60;99.90;;;;;;5080433;28;20283;-71
2021/12/21 05:29:14;;;;;;;3.50;1.60;;;-2.60;99.90;;;;;;5080490;27;20305;-71
2021/12/21 05:32:03;;;;;;;6.80;1.97;;;-2.60;99.90;;;;;;5092574;27;20241;-70
2021/12/21 05:34:52;;;;;;;3.13;1.73;;;-2.70;99.90;;;;;;5081350;27;20346;-70
2021/12/21 05:37:42;;;;;;;5.43;2.97;;;-3.00;99.90;;;;;;5096400;28;20776;-70
2021/12/21 05:40:34;;;;;;;6.07;2.30;;;-3.00;99.90;;;;;;5080660;28;20232;-70
2021/12/21 05:43:22;;;;;;;4.33;2.20;;;-3.00;99.90;;;;;;5080816;28;20739;-70
2021/12/21 05:46:12;;;;;;;3.67;2.40;;;-3.00;99.90;;;;;;5082464;27;20232;-69
2021/12/21 05:49:01;;;;;;;7.43;2.20;;;-3.10;99.90;;;;;;5092504;27;20229;-70
2021/12/21 05:51:51;;;;;;;6.60;2.37;;;-3.00;99.90;;;;;;5097083;27;20225;-69
2021/12/21 05:54:39;;;;;;;4.70;1.60;;;-3.00;99.90;;;;;;5093798;28;20220;-69
2021/12/21 05:57:28;;;;;;;3.07;1.70;;;-3.10;99.90;;;;;;5097643;27;20250;-69
2021/12/21 06:00:20;;;;;;;6.97;2.43;;;-3.20;99.90;;;;;;5092415;27;20217;-70
2021/12/21 06:03:10;;;;;;;4.13;2.00;;;-3.30;99.90;;;;;;5089891;28;20243;-69
2021/12/21 06:05:59;;;;;;;6.27;1.50;;;-3.30;99.90;;;;;;5089165;27;20217;-70
2021/12/21 06:08:49;;;;;;;4.23;2.00;;;-3.30;99.90;;;;;;5083785;28;20225;-70
2021/12/21 06:11:44;;;;;;;4.73;1.97;;;-3.50;99.90;;;;;;5099226;27;20228;-70
2021/12/21 06:24:57;;;;;;;3.17;1.83;;;-3.60;99.90;;;;;;5082007;28;20224;-69
2021/12/21 06:27:17;;;;;;;3.93;1.80;;;-3.50;99.90;;;;;;5100834;28;20234;-70
2021/12/21 06:30:08;;;;;;;4.10;1.77;;;-3.70;99.90;;;;;;5092994;28;20229;-71
2021/12/21 06:32:57;;;;;;;4.40;1.90;;;-3.60;99.90;;;;;;5078906;28;20656;-70
2021/12/21 06:35:47;;;;;;;4.80;1.77;;;-3.60;99.90;;;;;;5079055;28;20585;-69
2021/12/21 06:38:41;;;;;;;10.57;4.03;;;-3.70;99.90;;;;;;5094576;28;20734;-69
2021/12/21 06:41:30;;;;;;;8.63;3.20;;;-3.60;99.90;;;;;;5080289;28;20700;-70
2021/12/21 06:44:19;;;;;;;10.77;4.60;;;-3.60;99.90;;;;;;5082103;28;20245;-69
2021/12/21 06:51:09;;;;;;;5.27;2.13;;;-3.70;99.90;;;;;;5077546;28;20226;-71
2021/12/21 06:53:27;;;;;;;5.10;2.20;;;-3.80;99.90;;;;;;5095446;28;20227;-71
2021/12/21 06:56:16;;;;;;;4.87;2.10;;;-3.80;99.90;;;;;;5081328;28;20641;-70
2021/12/21 06:59:05;;;;;;;5.33;2.80;;;-3.70;99.90;;;;;;5092022;28;20219;-72
2021/12/21 07:01:54;;;;;;;6.53;1.90;;;-3.80;99.90;;;;;;5092119;28;20689;-71
2021/12/21 07:04:44;;;;;;;4.10;1.90;;;-3.80;99.90;;;;;;5081218;28;20217;-70
2021/12/21 07:07:32;;;;;;;10.10;2.00;;;-3.90;99.90;;;;;;5093581;28;20227;-70
2021/12/21 07:10:26;;;;;;;4.57;1.83;;;-3.90;99.90;;;;;;5084877;28;20232;-71
2021/12/21 07:19:29;;;;;;;6.03;2.50;;;-3.80;99.90;;;;;;5097476;28;20219;-71
2021/12/21 07:22:18;;;;;;;9.60;3.83;;;-3.60;99.90;;;;;;5098869;28;20310;-70
2021/12/21 07:25:08;;;;;;;7.33;2.97;;;-3.50;99.90;;;;;;5097691;27;21364;-70
2021/12/21 07:27:58;;;;;;;7.77;2.93;;;-3.50;99.90;;;;;;5081302;27;20275;-70
2021/12/21 07:30:48;;;;;;;5.47;2.10;;;-3.50;99.90;;;;;;5082304;28;20217;-72
2021/12/21 07:33:37;;;;;;;3.40;2.00;;;-3.50;99.90;;;;;;5101461;28;20225;-68
2021/12/21 07:36:26;;;;;;;7.97;2.30;;;-3.50;99.90;;;;;;5090015;27;20676;-68
2021/12/21 07:39:18;;;;;;;7.40;2.67;;;-3.40;99.90;;;;;;5100311;28;20220;-69
2021/12/21 07:42:27;;;;;;;7.70;2.40;;;-3.40;99.90;;;;;;5099226;27;20310;-68
2021/12/21 07:45:17;;;;;;;14.50;5.73;;;-3.30;99.90;;;;;;5101085;27;20224;-69
2021/12/21 07:48:07;;;;;;;10.10;3.03;;;-3.30;99.90;;;;;;5097009;27;20224;-71
2021/12/21 07:50:56;;;;;;;12.47;2.90;;;-3.10;99.90;;;;;;5080831;28;20229;-69
2021/12/21 07:53:45;;;;;;;9.13;4.63;;;-3.20;99.90;;;;;;5097036;27;20328;-72
2021/12/21 07:56:34;;;;;;;8.20;3.67;;;-3.10;99.90;;;;;;5095633;27;20223;-69
2021/12/21 07:59:23;;;;;;;18.60;7.47;;;-2.90;99.90;;;;;;5100814;27;20222;-73
2021/12/21 08:02:14;;;;;;;16.27;6.50;;;-3.10;99.90;;;;;;5092793;27;20289;-72
2021/12/21 08:05:05;;;;;;;9.70;4.47;;;-3.10;99.90;;;;;;5099577;28;20221;-70
2021/12/21 08:07:57;;;;;;;8.97;3.20;;;-3.10;99.90;;;;;;5080284;28;20230;-70
2021/12/21 08:10:51;;;;;;;3.77;2.20;;;-3.10;99.90;;;;;;5093007;27;20240;-69
2021/12/21 08:13:41;;;;;;;6.63;2.67;;;-3.10;99.90;;;;;;5092875;27;20835;-70
2021/12/21 08:16:30;;;;;;;13.50;3.80;;;-3.20;99.90;;;;;;5079060;27;20214;-71
2021/12/21 08:19:20;;;;;;;7.80;3.33;;;-3.20;99.50;;;;;;5096321;27;20236;-71
2021/12/21 08:22:09;;;;;;;9.07;2.77;;;-3.20;99.90;;;;;;5096300;27;20325;-69
2021/12/21 08:24:57;;;;;;;13.20;5.07;;;-3.00;99.90;;;;;;5093780;27;20312;-70
2021/12/21 08:27:46;;;;;;;10.50;4.37;;;-3.00;99.90;;;;;;5098536;27;20219;-71
2021/12/21 08:30:35;;;;;;;10.23;2.80;;;-3.00;99.90;;;;;;5094100;27;20221;-68
2021/12/21 08:33:24;;;;;;;12.87;4.33;;;-2.90;99.90;;;;;;5083734;28;20205;-69
2021/12/21 08:36:14;;;;;;;8.73;2.93;;;-2.90;99.60;;;;;;5097278;27;20226;-71
2021/12/21 08:39:04;;;;;;;6.83;2.70;;;-2.90;99.90;;;;;;5095699;27;20739;-71
2021/12/21 08:41:57;;;;;;;9.77;3.33;;;-2.80;99.90;;;;;;5095109;27;20221;-70
2021/12/21 08:44:48;;;;;;;6.00;2.77;;;-2.80;99.90;;;;;;5095242;28;20217;-69
2021/12/21 08:47:37;;;;;;;10.27;2.40;;;-2.80;98.20;;;;;;5094635;27;20222;-71
2021/12/21 08:50:27;;;;;;;7.63;3.00;;;-2.70;96.40;;;;;;5082180;27;20230;-70
2021/12/21 08:53:17;;;;;;;8.07;2.60;;;-2.70;96.20;;;;;;5099212;27;20232;-69
2021/12/21 08:56:06;;;;;;;6.83;2.37;;;-2.60;98.20;;;;;;5083668;28;21258;-70
2021/12/21 08:58:55;;;;;;;10.03;2.70;;;-2.50;96.50;;;;;;5083024;28;20222;-69
2021/12/21 09:01:44;;;;;;;5.43;2.13;;;-2.40;94.20;;;;;;5095966;28;20228;-71
2021/12/21 09:04:33;;;;;;;5.23;2.00;;;-2.40;90.70;;;;;;5098667;27;20233;-70
2021/12/21 09:07:21;;;;;;;8.20;1.90;;;-2.40;90.40;;;;;;5085445;28;20225;-68
2021/12/21 09:10:13;;;;;;;11.93;2.33;;;-2.30;89.00;;;;;;5082988;27;20317;-70
2021/12/21 09:13:02;;;;;;;9.30;2.40;;;-2.30;87.20;;;;;;5085550;28;20229;-67
2021/12/21 09:15:51;;;;;;;7.93;2.00;;;-2.20;86.20;;;;;;5083511;28;20214;-70
2021/12/21 09:18:40;;;;;;;6.90;2.40;;;-2.20;86.10;;;;;;5068982;28;20220;-71
2021/12/21 09:21:29;;;;;;;6.80;2.93;;;-2.20;87.20;;;;;;5059906;28;20868;-71
2021/12/21 09:24:18;;;;;;;10.33;2.40;;;-2.30;88.70;;;;;;5055438;28;20223;-71
2021/12/21 09:27:08;;;;;;;7.93;2.60;;;-2.10;85.10;;;;;;5060250;28;20223;-69
2021/12/21 09:29:57;;;;;;;8.53;2.40;;;-2.10;84.30;;;;;;5057898;28;20244;-70
2021/12/21 09:32:46;;;;;;;5.90;2.50;;;-2.00;83.30;;;;;;5056528;28;20216;-71
2021/12/21 09:35:35;;;;;;;6.23;2.20;;;-2.00;84.40;;;;;;5055377;28;20227;-69
2021/12/21 09:38:24;;;;;;;8.03;2.83;;;-1.90;79.50;;;;;;5055823;28;20224;-69
2021/12/21 09:41:13;;;;;;;6.03;2.80;;;-1.90;79.60;;;;;;5038643;28;20239;-79
2021/12/21 09:44:06;;;;;;;11.97;3.37;;;-1.90;80.50;;;;;;5061030;28;20234;-79
2021/12/21 09:46:55;;;;;;;8.90;3.37;;;-1.90;81.20;;;;;;5041676;28;20272;-76
2021/12/21 09:49:46;;;;;;;7.77;3.73;;;-1.80;80.40;;;;;;5048917;28;20314;-70
2021/12/21 09:52:35;;;;;;;19.00;4.17;;;-1.80;79.60;;;;;;5056059;28;20234;-71
2021/12/21 09:55:25;;;;;;;8.53;3.70;;;-1.80;79.10;;;;;;5055907;28;20299;-71
2021/12/21 09:58:14;;;;;;;14.23;3.30;;;-1.80;79.70;;;;;;5052319;28;20797;-69
2021/12/21 10:01:05;;;;;;;14.30;3.23;;;-1.80;79.40;;;;;;5054553;28;20240;-71
2021/12/21 10:03:54;;;;;;;15.37;4.10;;;-1.80;77.00;;;;;;5054745;28;20224;-71
2021/12/21 10:06:44;;;;;;;15.93;3.97;;;-1.70;76.90;;;;;;5057279;28;20216;-69
2021/12/21 10:09:36;;;;;;;9.13;3.70;;;-1.80;77.60;;;;;;5051639;28;20237;-71
2021/12/21 10:12:30;;;;;;;8.90;3.50;;;-1.80;79.10;;;;;;5056947;28;20229;-70
2021/12/21 10:15:21;;;;;;;9.40;4.00;;;-1.70;78.80;;;;;;5055640;28;20976;-72
2021/12/21 10:18:12;;;;;;;11.90;4.77;;;-1.70;80.90;;;;;;5075415;28;20733;-70
2021/12/21 10:21:03;;;;;;;18.70;4.53;;;-1.70;80.20;;;;;;5072246;28;20223;-71
2021/12/21 10:23:52;;;;;;;25.20;5.30;;;-1.70;82.40;;;;;;5073422;28;20225;-70
2021/12/21 10:26:40;;;;;;;14.67;5.40;;;-1.60;80.60;;;;;;5076869;28;20226;-71
2021/12/21 10:29:29;;;;;;;18.93;5.73;;;-1.70;81.00;;;;;;5074203;28;20331;-70
2021/12/21 10:32:21;;;;;;;11.83;5.57;;;-1.70;81.30;;;;;;5079599;28;20552;-70
2021/12/21 10:35:11;;;;;;;23.77;5.90;;;-1.70;82.50;;;;;;5076663;28;20218;-71
2021/12/21 10:38:03;;;;;;;18.67;6.63;;;-1.60;83.80;;;;;;5077959;28;20219;-70
2021/12/21 10:40:52;;;;;;;19.50;6.60;;;-1.60;86.40;;;;;;5077930;28;20363;-71
2021/12/21 10:43:41;;;;;;;13.97;5.90;;;-1.50;84.50;;;;;;5072627;28;21094;-70
2021/12/21 10:46:30;;;;;;;16.83;6.47;;;-1.50;85.30;;;;;;5073830;28;21139;-69
2021/12/21 10:49:25;;;;;;;19.70;6.03;;;-1.40;85.30;;;;;;5074400;28;20539;-70
2021/12/21 10:52:15;;;;;;;14.70;5.00;;;-1.40;85.30;;;;;;5077052;28;20228;-70
2021/12/21 10:55:06;;;;;;;11.13;4.53;;;-1.40;80.90;;;;;;5079736;28;20215;-70
2021/12/21 10:58:04;;;;;;;12.37;4.53;;;-1.30;81.70;;;;;;5076664;28;20219;-70
2021/12/21 11:00:59;;;;;;;17.43;6.77;;;-1.40;82.30;;;;;;5079255;28;20226;-71
2021/12/21 11:03:51;;;;;;;11.33;5.47;;;-1.30;81.40;;;;;;5072869;28;20747;-70
2021/12/21 11:06:47;;;;;;;12.07;5.80;;;-1.30;83.50;;;;;;5087451;28;20242;-76
2021/12/21 11:09:37;;;;;;;15.07;6.23;;;-1.20;82.50;;;;;;5077449;28;20223;-78
2021/12/21 11:12:29;;;;;;;10.27;4.70;;;-1.40;81.30;;;;;;5092046;28;20240;-76
2021/12/21 11:15:20;;;;;;;16.87;5.67;;;-1.40;81.40;;;;;;5078746;28;20306;-70
2021/12/21 11:18:12;;;;;;;17.03;5.73;;;-1.40;82.70;;;;;;5066429;28;20247;-71
2021/12/21 11:21:02;;;;;;;14.37;5.27;;;-1.30;84.80;;;;;;5057668;28;20212;-79
2021/12/21 11:23:51;;;;;;;14.07;5.33;;;-1.20;83.60;;;;;;5057457;28;20228;-78
2021/12/21 11:26:42;;;;;;;13.07;5.00;;;-1.20;84.50;;;;;;5052219;28;20226;-75
2021/12/21 11:29:34;;;;;;;9.10;3.73;;;-1.20;84.40;;;;;;5058687;28;20814;-72
2021/12/21 11:32:23;;;;;;;8.23;3.57;;;-1.10;84.90;;;;;;5059833;28;20220;-72
2021/12/21 11:38:21;;;;;;;9.60;4.17;;;-1.30;86.40;;;;;;5073488;28;20756;-78
2021/12/21 11:41:10;;;;;;;8.33;3.53;;;-1.40;90.50;;;;;;5057350;28;20240;-69
2021/12/21 11:44:06;;;;;;;7.80;3.50;;;-1.30;90.50;;;;;;5050552;28;20688;-71
2021/12/21 11:46:58;;;;;;;6.67;3.47;;;-1.40;90.70;;;;;;5050375;28;20228;-70
2021/12/21 11:49:50;;;;;;;10.00;4.10;;;-1.40;92.10;;;;;;5054166;28;21079;-70
2021/12/21 11:52:47;;;;;;;8.97;4.40;;;-1.40;94.30;;;;;;5056009;28;20227;-70
2021/12/21 11:55:39;;;;;;;10.77;4.60;;;-1.40;97.00;;;;;;5053921;28;20221;-70
2021/12/21 11:58:32;;;;;;;12.47;4.37;;;-1.30;98.20;;;;;;5051379;28;20921;-71
2021/12/21 12:01:25;;;;;;;9.77;4.40;;;-1.40;99.20;;;;;;5056591;28;20849;-69
2021/12/21 12:04:15;;;;;;;8.73;4.60;;;-1.30;99.90;;;;;;5049704;28;20256;-70
2021/12/21 12:07:16;;;;;;;11.33;4.30;;;-1.30;99.90;;;;;;5054242;28;20285;-70
2021/12/21 12:10:08;;;;;;;12.10;5.30;;;-1.40;99.90;;;;;;5051265;28;20235;-70
2021/12/21 12:13:08;;;;;;;13.30;5.53;;;-1.40;99.90;;;;;;5054276;28;20329;-70
2021/12/21 12:15:59;;;;;;;12.47;6.23;;;-1.30;99.90;;;;;;5048040;28;20235;-70
2021/12/21 12:18:52;;;;;;;9.47;4.73;;;-1.30;99.90;;;;;;5063886;28;20219;-72
2021/12/21 12:21:54;;;;;;;12.10;5.57;;;-1.20;99.90;;;;;;5073308;28;20226;-72
2021/12/21 12:24:46;;;;;;;11.57;5.30;;;-1.20;99.90;;;;;;5085181;27;20695;-70
2021/12/21 12:27:43;;;;;;;16.37;6.63;;;-1.20;99.90;;;;;;5069431;28;20603;-70
2021/12/21 12:30:33;;;;;;;11.80;6.53;;;-1.20;99.90;;;;;;5076473;28;20310;-72
2021/12/21 12:33:21;;;;;;;15.23;7.13;;;-1.20;99.90;;;;;;5075186;28;20231;-69
2021/12/21 12:36:12;;;;;;;14.90;7.20;;;-1.20;99.90;;;;;;5073605;28;20224;-69
2021/12/21 12:39:01;;;;;;;15.07;6.90;;;-1.20;99.90;;;;;;5083122;27;20231;-69
2021/12/21 12:42:00;;;;;;;15.37;7.40;;;-1.10;99.90;;;;;;5073670;28;20220;-70
2021/12/21 12:44:51;;;;;;;14.23;7.33;;;-1.10;99.90;;;;;;5074830;28;20256;-69
2021/12/21 12:47:43;;;;;;;14.93;7.07;;;-1.10;99.90;;;;;;5073773;28;20711;-70
2021/12/21 12:50:39;;;;;;;12.37;7.03;;;-1.10;99.90;;;;;;5088575;27;20243;-69
2021/12/21 12:53:37;;;;;;;15.10;7.33;;;-1.10;99.90;;;;;;5073581;28;20229;-69
2021/12/21 12:56:27;;;;;;;19.47;7.67;;;-1.10;99.90;;;;;;5076322;28;20306;-70
2021/12/21 12:59:16;;;;;;;15.57;8.40;;;-1.20;99.90;;;;;;5073914;28;20229;-70
2021/12/21 13:02:09;;;;;;;15.83;8.20;;;-1.20;99.90;;;;;;5072807;28;20240;-70
2021/12/21 13:04:59;;;;;;;16.33;7.83;;;-1.10;99.90;;;;;;5070865;28;20721;-69
2021/12/21 13:07:48;;;;;;;17.23;8.80;;;-1.10;99.90;;;;;;5073730;28;20211;-71
2021/12/21 13:10:39;;;;;;;15.97;8.37;;;-1.10;99.90;;;;;;5081784;27;20208;-71
2021/12/21 13:13:36;;;;;;;16.83;8.67;;;-1.00;99.90;;;;;;5076539;28;20381;-69
2021/12/21 13:16:27;;;;;;;16.60;8.10;;;-1.00;99.90;;;;;;5074262;28;20212;-70
2021/12/21 13:19:18;;;;;;;15.97;8.03;;;-0.90;99.90;;;;;;5072436;28;21080;-69
2021/12/21 13:22:06;;;;;;;18.70;8.70;;;-0.90;99.90;;;;;;5075051;28;21047;-71
2021/12/21 13:24:56;;;;;;;14.83;8.10;;;-1.00;99.90;;;;;;5072129;28;20228;-68
2021/12/21 13:27:47;;;;;;;18.60;8.77;;;-1.00;99.90;;;;;;5071685;28;20241;-69
2021/12/21 13:30:35;;;;;;;15.97;8.67;;;-1.00;99.90;;;;;;5074207;28;20221;-68
2021/12/21 13:33:26;;;;;;;16.93;8.93;;;-1.00;99.90;;;;;;5074737;28;20227;-70
2021/12/21 13:36:15;;;;;;;20.20;9.60;;;-1.00;99.90;;;;;;5072407;28;20361;-71
2021/12/21 13:39:17;;;;;;;17.47;8.57;;;-0.90;99.90;;;;;;5073083;28;20217;-70
2021/12/21 13:42:08;;;;;;;18.50;9.27;;;-0.80;99.90;;;;;;5075678;28;20265;-69
2021/12/21 13:45:00;;;;;;;19.23;9.37;;;-0.90;99.90;;;;;;5085469;27;20223;-70
2021/12/21 13:47:50;;;;;;;17.80;9.23;;;-1.00;99.90;;;;;;5075012;28;20350;-69
2021/12/21 13:50:39;;;;;;;20.10;9.73;;;-0.90;99.90;;;;;;5073954;28;20221;-69
2021/12/21 13:53:28;;;;;;;21.27;10.27;;;-0.90;99.90;;;;;;5071195;28;20295;-67
2021/12/21 13:56:19;;;;;;;27.27;10.17;;;-0.90;99.90;;;;;;5071243;28;20255;-70
2021/12/21 13:59:11;;;;;;;24.80;10.43;;;-0.90;99.90;;;;;;5072085;28;20810;-70
2021/12/21 14:02:07;;;;;;;21.87;10.70;;;-0.90;99.90;;;;;;5076155;28;20220;-69
2021/12/21 14:05:02;;;;;;;20.50;10.60;;;-0.90;99.90;;;;;;5071350;28;20228;-69
2021/12/21 14:07:51;;;;;;;27.00;10.40;;;-0.90;99.90;;;;;;5074832;28;20334;-69
2021/12/21 14:10:42;;;;;;;22.03;11.03;;;-1.00;99.90;;;;;;5071834;28;20232;-70
2021/12/21 14:13:32;;;;;;;20.77;10.70;;;-0.90;99.90;;;;;;5070885;28;20808;-69
2021/12/21 14:16:23;;;;;;;21.50;11.07;;;-0.80;99.90;;;;;;5058866;28;20224;-69
2021/12/21 14:19:17;;;;;;;20.70;11.20;;;-0.90;99.90;;;;;;5070390;28;20224;-68
2021/12/21 14:22:05;;;;;;;24.83;11.13;;;-0.90;99.90;;;;;;5069200;28;20227;-68
2021/12/21 14:24:54;;;;;;;18.17;10.97;;;-0.90;99.90;;;;;;5083379;28;20234;-70
2021/12/21 14:27:43;;;;;;;20.50;11.07;;;-0.80;99.90;;;;;;5073363;28;20285;-69
2021/12/21 14:30:32;;;;;;;24.03;11.20;;;-0.80;99.90;;;;;;5057976;28;20263;-70
2021/12/21 14:33:26;;;;;;;23.57;11.23;;;-0.70;99.90;;;;;;5069122;28;20675;-68
2021/12/21 14:36:16;;;;;;;19.70;11.60;;;-0.80;99.90;;;;;;5068849;28;20216;-69
2021/12/21 14:39:07;;;;;;;26.00;11.90;;;-0.70;99.90;;;;;;5066946;28;20235;-71
2021/12/21 14:42:00;;;;;;;21.17;11.20;;;-0.80;99.90;;;;;;5072118;28;21142;-68
2021/12/21 14:44:52;;;;;;;25.47;11.37;;;-0.70;99.90;;;;;;5074168;28;20724;-68
2021/12/21 14:47:41;;;;;;;22.50;11.97;;;-0.80;99.90;;;;;;5071859;28;20223;-68
2021/12/21 14:50:40;;;;;;;22.33;11.70;;;-0.80;99.90;;;;;;5073613;28;20349;-70
2021/12/21 14:53:42;;;;;;;25.93;12.00;;;-0.90;99.90;;;;;;5070291;28;20232;-69
2021/12/21 14:56:34;;;;;;;28.70;13.50;;;-0.90;99.90;;;;;;5074530;28;20226;-71
2021/12/21 14:59:33;;;;;;;23.57;11.90;;;-0.90;99.90;;;;;;5074405;28;20947;-69
2021/12/21 15:02:49;;;;;;;23.80;12.20;;;-0.80;99.90;;;;;;5072389;28;20230;-69
2021/12/21 15:05:37;;;;;;;26.60;12.13;;;-0.90;99.90;;;;;;5073063;28;20842;-69
2021/12/21 15:08:26;;;;;;;25.37;12.27;;;-0.90;99.90;;;;;;5069959;28;20225;-72
2021/12/21 15:11:23;;;;;;;23.80;12.20;;;-0.90;99.90;;;;;;5072748;28;20223;-71
2021/12/21 15:14:12;;;;;;;30.53;13.80;;;-0.90;99.90;;;;;;5076159;28;20228;-74
2021/12/21 15:17:01;;;;;;;22.43;11.53;;;-1.00;99.90;;;;;;5084304;28;20219;-74
2021/12/21 15:19:50;;;;;;;27.80;12.23;;;-1.00;99.90;;;;;;5073912;28;20231;-74
2021/12/21 15:22:40;;;;;;;24.77;12.57;;;-0.90;99.90;;;;;;5078566;28;20276;-74
2021/12/21 15:25:29;;;;;;;26.10;12.77;;;-0.90;99.90;;;;;;5079958;28;20227;-74
2021/12/21 15:28:20;;;;;;;25.57;13.00;;;-0.90;99.90;;;;;;5086305;28;20216;-73